Terminal Aerodrome Forecast
Issued by NWS

Home | Current Version | Previous Version | Text Only | Print | Product List | Glossary On
Versions: 1 2 3 4 5 6 7 8 9 10 11 12 13 14 15 16 17 18 19 20 21 22 23 24 25 26 27 28
000
FTUS41 KILN 300200 AAA
TAFLUK
TAF AMD
KLUK 300240Z 3003/3024 VRB03KT P6SM VCTS SCT029CB BKN080
      TEMPO 3003/3004 3SM -TSRA BR OVC029CB
     FM300400 VRB03KT 5SM BR BKN060
     FM300700 VRB03KT 3SM BR BKN025
     FM301300 24008KT P6SM SCT025 BKN040
     FM301800 26010G18KT P6SM VCSH BKN040=

USA.gov is the U.S. government's official web portal to all federal, state and local government web resources and services.